sensor_id;sensor_type;location;lat;lon;timestamp;temperature;humidity
19192;DHT22;9728;48.194;16.346;2023-08-06T00:02:23;23.80;74.50
19192;DHT22;9728;48.194;16.346;2023-08-06T00:07:28;23.70;74.40
19192;DHT22;9728;48.194;16.346;2023-08-06T00:12:31;23.70;74.60
19192;DHT22;9728;48.194;16.346;2023-08-06T00:17:35;23.70;74.60
19192;DHT22;9728;48.194;16.346;2023-08-06T00:22:40;23.70;76.00
19192;DHT22;9728;48.194;16.346;2023-08-06T00:27:43;23.80;76.90
19192;DHT22;9728;48.194;16.346;2023-08-06T00:32:46;24.10;77.10
19192;DHT22;9728;48.194;16.346;2023-08-06T00:37:52;24.40;77.20
19192;DHT22;9728;48.194;16.346;2023-08-06T00:42:56;24.60;76.90
19192;DHT22;9728;48.194;16.346;2023-08-06T00:47:59;24.90;76.30
19192;DHT22;9728;48.194;16.346;2023-08-06T00:53:05;25.10;75.70
19192;DHT22;9728;48.194;16.346;2023-08-06T00:58:08;25.30;75.40
19192;DHT22;9728;48.194;16.346;2023-08-06T01:03:12;25.50;74.40
19192;DHT22;9728;48.194;16.346;2023-08-06T01:08:28;25.70;73.80
19192;DHT22;9728;48.194;16.346;2023-08-06T01:13:40;25.70;73.00
19192;DHT22;9728;48.194;16.346;2023-08-06T01:18:47;25.80;72.80
19192;DHT22;9728;48.194;16.346;2023-08-06T01:23:53;25.80;72.20
19192;DHT22;9728;48.194;16.346;2023-08-06T01:29:00;25.80;71.80
19192;DHT22;9728;48.194;16.346;2023-08-06T01:34:09;25.70;72.00
19192;DHT22;9728;48.194;16.346;2023-08-06T01:39:15;25.70;72.30
19192;DHT22;9728;48.194;16.346;2023-08-06T01:44:19;25.70;72.50
19192;DHT22;9728;48.194;16.346;2023-08-06T01:49:22;25.70;72.30
19192;DHT22;9728;48.194;16.346;2023-08-06T01:54:27;25.70;71.90
19192;DHT22;9728;48.194;16.346;2023-08-06T01:59:31;25.60;71.50
19192;DHT22;9728;48.194;16.346;2023-08-06T02:04:34;25.60;71.70
19192;DHT22;9728;48.194;16.346;2023-08-06T02:09:39;25.60;71.50
19192;DHT22;9728;48.194;16.346;2023-08-06T02:14:42;25.40;71.10
19192;DHT22;9728;48.194;16.346;2023-08-06T02:19:46;25.30;71.30
19192;DHT22;9728;48.194;16.346;2023-08-06T02:24:50;25.30;71.60
19192;DHT22;9728;48.194;16.346;2023-08-06T02:29:54;25.30;71.70
19192;DHT22;9728;48.194;16.346;2023-08-06T02:34:57;25.20;71.80
19192;DHT22;9728;48.194;16.346;2023-08-06T02:40:03;25.30;71.90
19192;DHT22;9728;48.194;16.346;2023-08-06T02:45:07;25.30;72.00
19192;DHT22;9728;48.194;16.346;2023-08-06T02:50:11;25.30;71.80
19192;DHT22;9728;48.194;16.346;2023-08-06T02:55:16;25.20;71.30
19192;DHT22;9728;48.194;16.346;2023-08-06T03:00:22;25.20;71.40
19192;DHT22;9728;48.194;16.346;2023-08-06T03:05:26;25.10;71.90
19192;DHT22;9728;48.194;16.346;2023-08-06T03:10:31;25.10;71.70
19192;DHT22;9728;48.194;16.346;2023-08-06T03:15:37;25.20;71.40
19192;DHT22;9728;48.194;16.346;2023-08-06T03:20:44;25.20;71.30
19192;DHT22;9728;48.194;16.346;2023-08-06T03:25:49;25.30;71.00
19192;DHT22;9728;48.194;16.346;2023-08-06T03:30:59;25.20;70.90
19192;DHT22;9728;48.194;16.346;2023-08-06T03:36:08;25.20;70.70
19192;DHT22;9728;48.194;16.346;2023-08-06T03:41:13;25.20;71.20
19192;DHT22;9728;48.194;16.346;2023-08-06T03:46:18;25.30;71.00
19192;DHT22;9728;48.194;16.346;2023-08-06T03:51:21;25.30;70.90
19192;DHT22;9728;48.194;16.346;2023-08-06T03:56:28;25.30;70.90
19192;DHT22;9728;48.194;16.346;2023-08-06T04:01:31;25.30;70.70
19192;DHT22;9728;48.194;16.346;2023-08-06T04:06:35;25.40;70.70
19192;DHT22;9728;48.194;16.346;2023-08-06T04:11:40;25.40;70.50
19192;DHT22;9728;48.194;16.346;2023-08-06T04:16:43;25.40;70.50
19192;DHT22;9728;48.194;16.346;2023-08-06T04:21:47;25.40;70.60
19192;DHT22;9728;48.194;16.346;2023-08-06T04:26:53;25.40;70.30
19192;DHT22;9728;48.194;16.346;2023-08-06T04:31:56;25.50;70.20
19192;DHT22;9728;48.194;16.346;2023-08-06T04:37:01;25.50;70.10
19192;DHT22;9728;48.194;16.346;2023-08-06T04:42:07;25.50;70.00
19192;DHT22;9728;48.194;16.346;2023-08-06T04:47:10;25.50;69.60
19192;DHT22;9728;48.194;16.346;2023-08-06T04:52:14;25.50;69.60
19192;DHT22;9728;48.194;16.346;2023-08-06T04:57:19;25.50;69.50
19192;DHT22;9728;48.194;16.346;2023-08-06T05:02:22;25.40;69.30
19192;DHT22;9728;48.194;16.346;2023-08-06T05:07:26;25.30;69.80
19192;DHT22;9728;48.194;16.346;2023-08-06T05:12:30;25.30;70.10
19192;DHT22;9728;48.194;16.346;2023-08-06T05:17:34;25.30;69.80
19192;DHT22;9728;48.194;16.346;2023-08-06T05:22:37;25.40;69.90
19192;DHT22;9728;48.194;16.346;2023-08-06T05:27:42;25.40;70.00
19192;DHT22;9728;48.194;16.346;2023-08-06T05:32:46;25.30;69.70
19192;DHT22;9728;48.194;16.346;2023-08-06T05:37:50;25.30;69.90
19192;DHT22;9728;48.194;16.346;2023-08-06T05:42:55;25.30;70.00
19192;DHT22;9728;48.194;16.346;2023-08-06T05:47:58;25.40;70.30
19192;DHT22;9728;48.194;16.346;2023-08-06T05:53:02;25.50;70.20
19192;DHT22;9728;48.194;16.346;2023-08-06T05:58:07;25.60;70.00
19192;DHT22;9728;48.194;16.346;2023-08-06T06:03:10;25.70;69.40
19192;DHT22;9728;48.194;16.346;2023-08-06T06:08:14;25.70;69.30
19192;DHT22;9728;48.194;16.346;2023-08-06T06:13:19;25.80;69.30
19192;DHT22;9728;48.194;16.346;2023-08-06T06:18:22;25.80;69.20
19192;DHT22;9728;48.194;16.346;2023-08-06T06:23:26;25.90;69.30
19192;DHT22;9728;48.194;16.346;2023-08-06T06:28:31;26.00;68.90
19192;DHT22;9728;48.194;16.346;2023-08-06T06:33:34;26.10;68.60
19192;DHT22;9728;48.194;16.346;2023-08-06T06:38:38;26.10;68.70
19192;DHT22;9728;48.194;16.346;2023-08-06T06:43:43;26.20;68.50
19192;DHT22;9728;48.194;16.346;2023-08-06T06:48:46;26.30;68.10
19192;DHT22;9728;48.194;16.346;2023-08-06T06:53:50;26.30;67.80
19192;DHT22;9728;48.194;16.346;2023-08-06T06:58:54;26.30;67.40
19192;DHT22;9728;48.194;16.346;2023-08-06T07:03:58;26.30;67.50
19192;DHT22;9728;48.194;16.346;2023-08-06T07:09:06;26.20;67.80
19192;DHT22;9728;48.194;16.346;2023-08-06T07:14:11;26.20;68.00
19192;DHT22;9728;48.194;16.346;2023-08-06T07:19:16;26.20;67.80
19192;DHT22;9728;48.194;16.346;2023-08-06T07:24:20;26.20;67.70
19192;DHT22;9728;48.194;16.346;2023-08-06T07:29:25;26.20;67.90
19192;DHT22;9728;48.194;16.346;2023-08-06T07:34:28;26.20;67.90
19192;DHT22;9728;48.194;16.346;2023-08-06T07:39:31;26.20;67.90
19192;DHT22;9728;48.194;16.346;2023-08-06T07:44:36;26.30;68.90
19192;DHT22;9728;48.194;16.346;2023-08-06T07:49:42;26.30;67.50
19192;DHT22;9728;48.194;16.346;2023-08-06T07:54:45;26.30;67.70
19192;DHT22;9728;48.194;16.346;2023-08-06T07:59:50;26.30;67.70
19192;DHT22;9728;48.194;16.346;2023-08-06T08:04:55;26.40;67.80
19192;DHT22;9728;48.194;16.346;2023-08-06T08:09:58;26.50;67.80
19192;DHT22;9728;48.194;16.346;2023-08-06T08:15:04;26.50;67.70
19192;DHT22;9728;48.194;16.346;2023-08-06T08:20:08;26.60;67.30
19192;DHT22;9728;48.194;16.346;2023-08-06T08:25:12;26.70;67.10
19192;DHT22;9728;48.194;16.346;2023-08-06T08:30:17;26.70;66.90
19192;DHT22;9728;48.194;16.346;2023-08-06T08:35:21;26.70;66.70
19192;DHT22;9728;48.194;16.346;2023-08-06T08:40:29;26.80;66.50
19192;DHT22;9728;48.194;16.346;2023-08-06T08:45:39;26.80;66.10
19192;DHT22;9728;48.194;16.346;2023-08-06T08:50:45;26.80;65.90
19192;DHT22;9728;48.194;16.346;2023-08-06T08:55:49;26.80;66.10
19192;DHT22;9728;48.194;16.346;2023-08-06T09:00:54;26.80;66.20
19192;DHT22;9728;48.194;16.346;2023-08-06T09:05:59;26.90;66.10
19192;DHT22;9728;48.194;16.346;2023-08-06T09:11:05;26.90;65.80
19192;DHT22;9728;48.194;16.346;2023-08-06T09:16:13;26.90;66.60
19192;DHT22;9728;48.194;16.346;2023-08-06T09:21:17;26.80;66.00
19192;DHT22;9728;48.194;16.346;2023-08-06T09:26:20;26.90;66.00
19192;DHT22;9728;48.194;16.346;2023-08-06T09:31:32;26.90;65.90
19192;DHT22;9728;48.194;16.346;2023-08-06T09:36:40;26.90;65.50
19192;DHT22;9728;48.194;16.346;2023-08-06T09:41:44;26.90;66.40
19192;DHT22;9728;48.194;16.346;2023-08-06T09:46:49;26.90;65.90
19192;DHT22;9728;48.194;16.346;2023-08-06T09:51:53;27.00;65.90
19192;DHT22;9728;48.194;16.346;2023-08-06T09:56:58;27.10;65.90
19192;DHT22;9728;48.194;16.346;2023-08-06T10:02:10;27.10;65.90
19192;DHT22;9728;48.194;16.346;2023-08-06T10:07:15;27.20;65.40
19192;DHT22;9728;48.194;16.346;2023-08-06T10:12:21;27.20;65.10
19192;DHT22;9728;48.194;16.346;2023-08-06T10:17:26;27.20;64.90
19192;DHT22;9728;48.194;16.346;2023-08-06T10:22:46;27.10;64.90
19192;DHT22;9728;48.194;16.346;2023-08-06T10:28:07;27.10;65.00
19192;DHT22;9728;48.194;16.346;2023-08-06T10:33:14;27.00;64.60
19192;DHT22;9728;48.194;16.346;2023-08-06T10:38:19;27.00;65.00
19192;DHT22;9728;48.194;16.346;2023-08-06T10:43:28;27.00;65.20
19192;DHT22;9728;48.194;16.346;2023-08-06T10:48:36;27.00;65.00
19192;DHT22;9728;48.194;16.346;2023-08-06T10:53:43;27.00;65.10
19192;DHT22;9728;48.194;16.346;2023-08-06T10:58:47;27.00;65.20
19192;DHT22;9728;48.194;16.346;2023-08-06T11:03:52;27.00;66.20
19192;DHT22;9728;48.194;16.346;2023-08-06T11:08:57;27.10;65.30
19192;DHT22;9728;48.194;16.346;2023-08-06T11:14:00;27.10;65.20
19192;DHT22;9728;48.194;16.346;2023-08-06T11:19:07;27.10;65.20
19192;DHT22;9728;48.194;16.346;2023-08-06T11:24:10;27.10;65.10
19192;DHT22;9728;48.194;16.346;2023-08-06T11:29:15;27.10;65.20
19192;DHT22;9728;48.194;16.346;2023-08-06T11:34:20;27.10;65.10
19192;DHT22;9728;48.194;16.346;2023-08-06T11:39:24;27.20;65.00
19192;DHT22;9728;48.194;16.346;2023-08-06T11:44:30;27.20;64.90
19192;DHT22;9728;48.194;16.346;2023-08-06T11:49:43;27.20;64.60
19192;DHT22;9728;48.194;16.346;2023-08-06T11:55:01;27.10;64.30
19192;DHT22;9728;48.194;16.346;2023-08-06T12:00:08;27.10;64.60
19192;DHT22;9728;48.194;16.346;2023-08-06T12:05:21;27.10;65.00
19192;DHT22;9728;48.194;16.346;2023-08-06T12:10:26;27.20;64.70
19192;DHT22;9728;48.194;16.346;2023-08-06T12:15:30;27.20;64.70
19192;DHT22;9728;48.194;16.346;2023-08-06T12:20:36;27.20;64.30
19192;DHT22;9728;48.194;16.346;2023-08-06T12:25:40;27.10;64.20
19192;DHT22;9728;48.194;16.346;2023-08-06T12:30:44;27.10;64.10
19192;DHT22;9728;48.194;16.346;2023-08-06T12:35:49;27.00;64.10
19192;DHT22;9728;48.194;16.346;2023-08-06T12:40:52;26.90;64.00
19192;DHT22;9728;48.194;16.346;2023-08-06T12:45:56;26.90;64.30
19192;DHT22;9728;48.194;16.346;2023-08-06T12:51:00;26.90;64.50
19192;DHT22;9728;48.194;16.346;2023-08-06T12:56:04;26.80;64.60
19192;DHT22;9728;48.194;16.346;2023-08-06T13:01:07;26.80;65.00
19192;DHT22;9728;48.194;16.346;2023-08-06T13:06:13;26.80;65.30
19192;DHT22;9728;48.194;16.346;2023-08-06T13:11:17;26.80;65.30
19192;DHT22;9728;48.194;16.346;2023-08-06T13:16:22;26.90;65.40
19192;DHT22;9728;48.194;16.346;2023-08-06T13:21:32;26.90;65.30
19192;DHT22;9728;48.194;16.346;2023-08-06T13:26:39;26.90;65.30
19192;DHT22;9728;48.194;16.346;2023-08-06T13:31:43;26.90;65.30
19192;DHT22;9728;48.194;16.346;2023-08-06T13:36:49;26.90;65.10
19192;DHT22;9728;48.194;16.346;2023-08-06T13:41:54;27.00;64.70
19192;DHT22;9728;48.194;16.346;2023-08-06T13:46:58;26.90;64.90
19192;DHT22;9728;48.194;16.346;2023-08-06T13:52:04;26.90;64.80
19192;DHT22;9728;48.194;16.346;2023-08-06T13:57:23;26.90;64.70
19192;DHT22;9728;48.194;16.346;2023-08-06T14:02:27;26.90;64.90
19192;DHT22;9728;48.194;16.346;2023-08-06T14:07:33;26.80;65.10
19192;DHT22;9728;48.194;16.346;2023-08-06T14:12:38;26.90;65.30
19192;DHT22;9728;48.194;16.346;2023-08-06T14:17:42;26.90;65.50
19192;DHT22;9728;48.194;16.346;2023-08-06T14:22:47;26.90;65.10
19192;DHT22;9728;48.194;16.346;2023-08-06T14:27:52;27.00;64.90
19192;DHT22;9728;48.194;16.346;2023-08-06T14:32:57;27.10;64.40
19192;DHT22;9728;48.194;16.346;2023-08-06T14:38:19;27.10;64.30
19192;DHT22;9728;48.194;16.346;2023-08-06T14:43:24;27.10;63.50
19192;DHT22;9728;48.194;16.346;2023-08-06T14:48:28;27.20;63.70
19192;DHT22;9728;48.194;16.346;2023-08-06T14:53:35;27.10;63.70
19192;DHT22;9728;48.194;16.346;2023-08-06T14:58:40;27.10;63.30
19192;DHT22;9728;48.194;16.346;2023-08-06T15:03:44;27.10;63.60
19192;DHT22;9728;48.194;16.346;2023-08-06T15:08:50;27.10;64.20
19192;DHT22;9728;48.194;16.346;2023-08-06T15:13:55;27.10;63.80
19192;DHT22;9728;48.194;16.346;2023-08-06T15:19:03;27.20;63.70
19192;DHT22;9728;48.194;16.346;2023-08-06T15:24:11;27.20;63.50
19192;DHT22;9728;48.194;16.346;2023-08-06T15:29:16;27.20;63.10
19192;DHT22;9728;48.194;16.346;2023-08-06T15:34:20;27.20;63.00
19192;DHT22;9728;48.194;16.346;2023-08-06T15:39:26;27.10;62.70
19192;DHT22;9728;48.194;16.346;2023-08-06T15:44:30;27.10;62.40
19192;DHT22;9728;48.194;16.346;2023-08-06T15:49:35;27.00;62.60
19192;DHT22;9728;48.194;16.346;2023-08-06T15:54:42;26.90;62.70
19192;DHT22;9728;48.194;16.346;2023-08-06T15:59:46;26.80;62.30
19192;DHT22;9728;48.194;16.346;2023-08-06T16:04:51;26.80;62.70
19192;DHT22;9728;48.194;16.346;2023-08-06T16:09:57;26.70;62.60
19192;DHT22;9728;48.194;16.346;2023-08-06T16:15:01;26.70;62.70
19192;DHT22;9728;48.194;16.346;2023-08-06T16:20:06;26.60;62.70
19192;DHT22;9728;48.194;16.346;2023-08-06T16:25:13;26.60;62.80
19192;DHT22;9728;48.194;16.346;2023-08-06T16:30:18;26.50;62.70
19192;DHT22;9728;48.194;16.346;2023-08-06T16:35:23;26.50;62.90
19192;DHT22;9728;48.194;16.346;2023-08-06T16:40:30;26.50;62.70
19192;DHT22;9728;48.194;16.346;2023-08-06T16:45:36;26.50;62.40
19192;DHT22;9728;48.194;16.346;2023-08-06T16:50:42;26.50;62.70
19192;DHT22;9728;48.194;16.346;2023-08-06T16:55:47;26.50;62.80
19192;DHT22;9728;48.194;16.346;2023-08-06T17:00:52;26.40;62.60
19192;DHT22;9728;48.194;16.346;2023-08-06T17:05:59;26.40;62.80
19192;DHT22;9728;48.194;16.346;2023-08-06T17:11:05;26.30;62.90
19192;DHT22;9728;48.194;16.346;2023-08-06T17:16:10;26.30;62.90
19192;DHT22;9728;48.194;16.346;2023-08-06T17:21:15;26.30;62.90
19192;DHT22;9728;48.194;16.346;2023-08-06T17:26:22;26.40;62.70
19192;DHT22;9728;48.194;16.346;2023-08-06T17:31:29;26.40;62.60
19192;DHT22;9728;48.194;16.346;2023-08-06T17:36:35;26.50;62.60
19192;DHT22;9728;48.194;16.346;2023-08-06T17:41:41;26.50;62.00
19192;DHT22;9728;48.194;16.346;2023-08-06T17:46:50;26.40;61.70
19192;DHT22;9728;48.194;16.346;2023-08-06T17:51:55;26.40;61.40
19192;DHT22;9728;48.194;16.346;2023-08-06T17:57:01;26.20;61.80
19192;DHT22;9728;48.194;16.346;2023-08-06T18:02:07;26.10;62.10
19192;DHT22;9728;48.194;16.346;2023-08-06T18:07:12;26.00;62.30
19192;DHT22;9728;48.194;16.346;2023-08-06T18:12:19;26.00;62.20
19192;DHT22;9728;48.194;16.346;2023-08-06T18:17:23;25.90;61.90
19192;DHT22;9728;48.194;16.346;2023-08-06T18:22:29;25.90;62.00
19192;DHT22;9728;48.194;16.346;2023-08-06T18:27:36;25.80;61.70
19192;DHT22;9728;48.194;16.346;2023-08-06T18:32:41;25.80;61.50
19192;DHT22;9728;48.194;16.346;2023-08-06T18:37:45;25.80;61.80
19192;DHT22;9728;48.194;16.346;2023-08-06T18:42:52;25.70;62.60
19192;DHT22;9728;48.194;16.346;2023-08-06T18:47:55;25.60;61.80
19192;DHT22;9728;48.194;16.346;2023-08-06T18:52:59;25.60;62.00
19192;DHT22;9728;48.194;16.346;2023-08-06T18:58:06;25.60;61.90
19192;DHT22;9728;48.194;16.346;2023-08-06T19:03:12;25.50;61.70
19192;DHT22;9728;48.194;16.346;2023-08-06T19:08:17;25.40;62.00
19192;DHT22;9728;48.194;16.346;2023-08-06T19:13:24;25.40;61.90
19192;DHT22;9728;48.194;16.346;2023-08-06T19:18:28;25.40;61.30
19192;DHT22;9728;48.194;16.346;2023-08-06T19:23:33;25.30;61.30
19192;DHT22;9728;48.194;16.346;2023-08-06T19:28:40;25.30;61.50
19192;DHT22;9728;48.194;16.346;2023-08-06T19:33:45;25.20;60.80
19192;DHT22;9728;48.194;16.346;2023-08-06T19:38:50;25.00;61.40
19192;DHT22;9728;48.194;16.346;2023-08-06T19:43:56;24.90;61.90
19192;DHT22;9728;48.194;16.346;2023-08-06T19:49:01;24.90;61.50
19192;DHT22;9728;48.194;16.346;2023-08-06T19:54:05;24.90;61.80
19192;DHT22;9728;48.194;16.346;2023-08-06T19:59:13;24.80;61.30
19192;DHT22;9728;48.194;16.346;2023-08-06T20:04:17;24.70;61.30
19192;DHT22;9728;48.194;16.346;2023-08-06T20:09:22;24.60;61.10
19192;DHT22;9728;48.194;16.346;2023-08-06T20:14:28;24.40;61.50
19192;DHT22;9728;48.194;16.346;2023-08-06T20:19:34;24.30;61.80
19192;DHT22;9728;48.194;16.346;2023-08-06T20:24:39;24.20;61.90
19192;DHT22;9728;48.194;16.346;2023-08-06T20:29:45;24.00;62.00
19192;DHT22;9728;48.194;16.346;2023-08-06T20:34:49;23.90;62.40
19192;DHT22;9728;48.194;16.346;2023-08-06T20:39:53;23.80;62.70
19192;DHT22;9728;48.194;16.346;2023-08-06T20:44:59;23.70;63.00
19192;DHT22;9728;48.194;16.346;2023-08-06T20:50:03;23.70;63.30
19192;DHT22;9728;48.194;16.346;2023-08-06T20:55:08;23.70;63.30
19192;DHT22;9728;48.194;16.346;2023-08-06T21:00:14;23.70;63.40
19192;DHT22;9728;48.194;16.346;2023-08-06T21:05:18;23.60;63.70
19192;DHT22;9728;48.194;16.346;2023-08-06T21:10:21;23.60;63.30
19192;DHT22;9728;48.194;16.346;2023-08-06T21:15:26;23.60;63.40
19192;DHT22;9728;48.194;16.346;2023-08-06T21:20:33;23.50;63.60
19192;DHT22;9728;48.194;16.346;2023-08-06T21:25:36;23.50;63.60
19192;DHT22;9728;48.194;16.346;2023-08-06T21:30:41;23.50;63.70
19192;DHT22;9728;48.194;16.346;2023-08-06T21:35:45;23.50;63.70
19192;DHT22;9728;48.194;16.346;2023-08-06T21:40:48;23.60;63.80
19192;DHT22;9728;48.194;16.346;2023-08-06T21:45:53;23.60;64.00
19192;DHT22;9728;48.194;16.346;2023-08-06T21:51:00;23.60;64.40
19192;DHT22;9728;48.194;16.346;2023-08-06T21:56:05;23.70;64.40
19192;DHT22;9728;48.194;16.346;2023-08-06T22:01:13;23.70;64.40
19192;DHT22;9728;48.194;16.346;2023-08-06T22:06:17;23.80;64.40
19192;DHT22;9728;48.194;16.346;2023-08-06T22:11:20;23.90;64.30
19192;DHT22;9728;48.194;16.346;2023-08-06T22:16:25;24.00;64.00
19192;DHT22;9728;48.194;16.346;2023-08-06T22:21:29;24.10;64.00
19192;DHT22;9728;48.194;16.346;2023-08-06T22:26:33;24.20;63.50
19192;DHT22;9728;48.194;16.346;2023-08-06T22:31:38;24.20;63.20
19192;DHT22;9728;48.194;16.346;2023-08-06T22:36:41;24.30;63.30
19192;DHT22;9728;48.194;16.346;2023-08-06T22:41:45;24.30;63.20
19192;DHT22;9728;48.194;16.346;2023-08-06T22:46:50;24.30;63.10
19192;DHT22;9728;48.194;16.346;2023-08-06T22:51:54;24.40;62.70
19192;DHT22;9728;48.194;16.346;2023-08-06T22:56:58;24.40;62.60
19192;DHT22;9728;48.194;16.346;2023-08-06T23:02:03;24.40;62.20
19192;DHT22;9728;48.194;16.346;2023-08-06T23:07:06;24.40;62.10
19192;DHT22;9728;48.194;16.346;2023-08-06T23:12:10;24.30;62.10
19192;DHT22;9728;48.194;16.346;2023-08-06T23:17:15;24.20;62.20
19192;DHT22;9728;48.194;16.346;2023-08-06T23:22:18;24.20;62.00
19192;DHT22;9728;48.194;16.346;2023-08-06T23:27:22;24.20;62.20
19192;DHT22;9728;48.194;16.346;2023-08-06T23:32:27;24.10;62.50
19192;DHT22;9728;48.194;16.346;2023-08-06T23:37:32;24.10;62.00
19192;DHT22;9728;48.194;16.346;2023-08-06T23:42:36;24.20;62.10
19192;DHT22;9728;48.194;16.346;2023-08-06T23:47:41;24.20;62.20
19192;DHT22;9728;48.194;16.346;2023-08-06T23:52:45;24.20;61.80
19192;DHT22;9728;48.194;16.346;2023-08-06T23:57:49;24.20;62.00
